createdAt,value
2022-11-19T00:01:26.469Z,3.88
2022-11-19T00:03:54.949Z,4.35
2022-11-19T00:06:27.146Z,4.68
2022-11-19T00:08:55.851Z,4.88
2022-11-19T00:11:44.290Z,4.60
2022-11-19T00:14:14.227Z,18.45
2022-11-19T00:16:41.944Z,8.15
2022-11-19T00:19:11.127Z,4.35
2022-11-19T00:21:38.569Z,3.78
2022-11-19T00:24:06.427Z,3.53
2022-11-19T00:26:33.641Z,3.10
2022-11-19T00:29:01.199Z,3.70
2022-11-19T00:31:28.369Z,3.60
2022-11-19T00:33:55.943Z,3.42
2022-11-19T00:36:23.980Z,3.60
2022-11-19T00:38:51.446Z,3.28
2022-11-19T00:41:18.629Z,3.60
2022-11-19T00:43:49.484Z,3.10
2022-11-19T00:46:17.890Z,4.00
2022-11-19T00:48:46.454Z,3.35
2022-11-19T00:51:14.404Z,4.22
2022-11-19T00:53:42.026Z,4.22
2022-11-19T00:56:14.111Z,4.93
2022-11-19T00:58:42.160Z,4.38
2022-11-19T01:01:10.722Z,4.55
2022-11-19T01:03:39.115Z,5.20
2022-11-19T01:06:06.929Z,5.68
2022-11-19T01:08:34.779Z,4.75
2022-11-19T01:11:14.126Z,4.60
2022-11-19T01:13:41.970Z,3.97
2022-11-19T01:16:13.558Z,3.95
2022-11-19T01:18:42.630Z,3.13
2022-11-19T01:21:11.420Z,3.22
2022-11-19T01:23:40.502Z,2.10
2022-11-19T01:26:08.291Z,2.63
2022-11-19T01:28:36.270Z,2.58
2022-11-19T01:31:28.027Z,2.10
2022-11-19T01:33:55.887Z,2.08
2022-11-19T01:36:26.361Z,2.25
2022-11-19T01:38:54.668Z,2.08
2022-11-19T01:41:25.330Z,2.08
2022-11-19T01:43:56.768Z,2.30
2022-11-19T01:46:26.663Z,2.83
2022-11-19T01:49:08.451Z,3.00
2022-11-19T01:51:37.580Z,2.88
2022-11-19T01:54:20.800Z,3.45
2022-11-19T01:56:48.180Z,2.88
2022-11-19T01:59:18.833Z,3.22
2022-11-19T02:01:46.697Z,3.45
2022-11-19T02:04:17.766Z,3.75
2022-11-19T02:06:45.794Z,3.20
2022-11-19T02:09:13.333Z,3.33
2022-11-19T02:11:46.361Z,3.83
2022-11-19T02:14:26.026Z,4.38
2022-11-19T02:17:19.020Z,3.22
2022-11-19T02:20:11.252Z,3.10
2022-11-19T02:22:47.397Z,3.30
2022-11-19T02:25:35.207Z,3.35
2022-11-19T02:28:26.378Z,3.83
2022-11-19T02:31:17.070Z,7.53
2022-11-19T02:34:01.631Z,3.17
2022-11-19T02:36:38.060Z,3.42
2022-11-19T02:39:13.342Z,4.35
2022-11-19T02:41:46.569Z,4.47
2022-11-19T02:44:55.466Z,4.47
2022-11-19T02:47:29.112Z,4.45
2022-11-19T02:50:02.980Z,4.78
2022-11-19T02:52:30.527Z,5.20
2022-11-19T02:54:57.695Z,6.45
2022-11-19T02:57:25.243Z,6.90
2022-11-19T03:00:20.109Z,6.80
2022-11-19T03:03:10.250Z,8.32
2022-11-19T03:05:41.698Z,9.88
2022-11-19T03:08:09.255Z,11.10
2022-11-19T03:10:51.471Z,10.00
2022-11-19T03:13:43.843Z,11.40
2022-11-19T03:16:41.452Z,11.32
2022-11-19T03:19:36.662Z,11.35
2022-11-19T03:22:21.240Z,12.43
2022-11-19T03:25:06.250Z,11.82
2022-11-19T03:27:38.960Z,12.85
2022-11-19T03:30:07.719Z,12.27
2022-11-19T03:32:40.055Z,12.25
2022-11-19T03:35:13.789Z,11.25
2022-11-19T03:37:45.063Z,10.98
2022-11-19T03:40:16.430Z,11.27
2022-11-19T03:42:46.761Z,9.73
2022-11-19T03:45:18.470Z,8.60
2022-11-19T03:47:49.312Z,8.73
2022-11-19T03:50:42.969Z,6.80
2022-11-19T03:53:10.179Z,9.88
2022-11-19T03:55:46.702Z,8.15
2022-11-19T03:58:14.077Z,10.27
2022-11-19T04:00:41.476Z,9.00
2022-11-19T04:03:08.589Z,9.00
2022-11-19T04:05:36.102Z,9.27
2022-11-19T04:08:03.276Z,11.85
2022-11-19T04:10:30.701Z,11.27
2022-11-19T04:12:57.873Z,11.95
2022-11-19T04:15:25.355Z,11.30
2022-11-19T04:17:52.491Z,11.27
2022-11-19T04:20:19.991Z,12.25
2022-11-19T04:22:47.410Z,11.55
2022-11-19T04:25:14.914Z,12.50
2022-11-19T04:27:42.113Z,12.73
2022-11-19T04:30:10.114Z,13.05
2022-11-19T04:32:37.258Z,12.48
2022-11-19T04:35:05.069Z,14.05
2022-11-19T04:37:32.270Z,14.20
2022-11-19T04:39:59.745Z,14.60
2022-11-19T04:42:26.965Z,14.40
2022-11-19T04:44:54.377Z,14.80
2022-11-19T04:47:21.517Z,14.68
2022-11-19T04:49:48.956Z,15.48
2022-11-19T04:52:16.133Z,13.38
2022-11-19T04:54:43.569Z,14.05
2022-11-19T04:57:10.700Z,16.13
2022-11-19T04:59:38.282Z,14.00
2022-11-19T05:02:05.446Z,14.35
2022-11-19T05:04:32.909Z,15.07
2022-11-19T05:07:00.047Z,15.55
2022-11-19T05:09:27.550Z,15.65
2022-11-19T05:11:54.665Z,14.43
2022-11-19T05:14:23.729Z,14.30
2022-11-19T05:16:54.468Z,14.15
2022-11-19T05:19:22.165Z,14.48
2022-11-19T05:21:49.387Z,14.02
2022-11-19T05:24:16.793Z,14.15
2022-11-19T05:26:43.898Z,12.13
2022-11-19T05:29:11.432Z,13.25
2022-11-19T05:31:38.589Z,12.10
2022-11-19T05:34:06.096Z,11.45
2022-11-19T05:36:33.267Z,11.48
2022-11-19T05:39:00.776Z,11.80
2022-11-19T05:41:27.913Z,11.27
2022-11-19T05:43:55.817Z,13.80
2022-11-19T05:46:22.932Z,12.80
2022-11-19T05:48:50.366Z,14.00
2022-11-19T05:51:17.634Z,14.73
2022-11-19T05:53:45.102Z,15.85
2022-11-19T05:56:12.557Z,16.42
2022-11-19T05:58:40.048Z,18.65
2022-11-19T06:01:07.351Z,18.65
2022-11-19T06:03:34.803Z,19.25
2022-11-19T06:06:02.022Z,20.13
2022-11-19T06:08:29.428Z,20.42
2022-11-19T06:10:56.631Z,20.98
2022-11-19T06:13:24.146Z,22.67
2022-11-19T06:15:51.353Z,20.40
2022-11-19T06:18:19.141Z,20.90
2022-11-19T06:20:46.557Z,22.65
2022-11-19T06:23:14.337Z,21.70
2022-11-19T06:25:41.628Z,22.05
2022-11-19T06:28:09.099Z,24.13
2022-11-19T06:30:36.249Z,22.42
2022-11-19T06:33:03.728Z,23.63
2022-11-19T06:35:30.842Z,23.75
2022-11-19T06:37:58.321Z,24.40
2022-11-19T06:40:25.474Z,22.70
2022-11-19T06:42:52.891Z,21.90
2022-11-19T06:45:20.122Z,24.85
2022-11-19T06:47:49.313Z,21.80
2022-11-19T06:50:16.479Z,22.55
2022-11-19T06:52:44.116Z,21.85
2022-11-19T06:55:11.415Z,22.10
2022-11-19T06:57:38.904Z,25.35
2022-11-19T07:00:06.614Z,24.25
2022-11-19T07:02:34.168Z,20.98
2022-11-19T07:05:01.330Z,23.27
2022-11-19T07:07:28.881Z,20.08
2022-11-19T07:09:56.142Z,24.60
2022-11-19T07:12:23.691Z,20.50
2022-11-19T07:14:50.887Z,19.50
2022-11-19T07:17:18.360Z,21.13
2022-11-19T07:19:45.503Z,20.80
2022-11-19T07:22:12.936Z,22.35
2022-11-19T07:24:40.072Z,20.27
2022-11-19T07:27:07.518Z,20.23
2022-11-19T07:29:34.706Z,25.08
2022-11-19T07:32:02.280Z,19.75
2022-11-19T07:34:29.430Z,19.55
2022-11-19T07:36:56.921Z,20.45
2022-11-19T07:39:24.050Z,20.90
2022-11-19T07:42:10.002Z,21.42
2022-11-19T07:44:40.957Z,19.25
2022-11-19T07:47:09.118Z,21.50
2022-11-19T07:49:37.114Z,20.88
2022-11-19T07:52:04.719Z,18.80
2022-11-19T07:54:31.899Z,22.23
2022-11-19T07:56:59.369Z,25.20
2022-11-19T07:59:27.170Z,23.45
2022-11-19T08:01:54.833Z,21.50
2022-11-19T08:04:22.468Z,21.67
2022-11-19T08:06:49.893Z,18.85
2022-11-19T08:09:17.307Z,20.05
2022-11-19T08:11:44.856Z,20.27
2022-11-19T08:14:13.745Z,18.88
2022-11-19T08:16:59.834Z,18.60
2022-11-19T08:19:27.165Z,20.95
2022-11-19T08:21:54.603Z,20.15
2022-11-19T08:24:22.472Z,18.75
2022-11-19T08:26:50.968Z,20.55
2022-11-19T08:29:20.571Z,18.67
2022-11-19T08:31:48.637Z,17.73
2022-11-19T08:34:17.138Z,16.88
2022-11-19T08:36:44.956Z,18.02
2022-11-19T08:39:12.178Z,16.88
2022-11-19T08:41:58.396Z,18.30
2022-11-19T08:44:25.661Z,16.10
2022-11-19T08:46:53.178Z,19.17
2022-11-19T08:49:20.519Z,17.90
2022-11-19T08:51:48.000Z,18.65
2022-11-19T08:54:15.346Z,17.00
2022-11-19T08:56:42.787Z,16.92
2022-11-19T08:59:10.103Z,16.10
2022-11-19T09:01:37.610Z,17.38
2022-11-19T09:04:05.009Z,15.90
2022-11-19T09:06:35.833Z,15.02
2022-11-19T09:09:04.828Z,16.52
2022-11-19T09:11:32.439Z,15.05
2022-11-19T09:13:59.718Z,16.58
2022-11-19T09:16:27.583Z,15.52
2022-11-19T09:18:54.920Z,15.00
2022-11-19T09:21:22.412Z,15.50
2022-11-19T09:23:49.585Z,15.05
2022-11-19T09:26:18.370Z,14.90
2022-11-19T09:28:46.486Z,14.38
2022-11-19T09:31:17.306Z,14.75
2022-11-19T09:33:49.562Z,16.92
2022-11-19T09:36:18.590Z,15.60
2022-11-19T09:38:47.067Z,14.60
2022-11-19T09:41:39.307Z,14.73
2022-11-19T09:44:29.980Z,15.52
2022-11-19T09:47:24.732Z,15.18
2022-11-19T09:50:12.306Z,14.88
2022-11-19T09:53:00.925Z,15.88
2022-11-19T09:55:34.808Z,15.27
2022-11-19T09:58:06.167Z,15.30
2022-11-19T10:00:33.630Z,13.97
2022-11-19T10:03:14.058Z,14.60
2022-11-19T10:06:11.017Z,16.13
2022-11-19T10:09:09.500Z,18.23
2022-11-19T10:11:41.193Z,15.30
2022-11-19T10:16:48.790Z,16.10
2022-11-19T10:19:32.028Z,15.32
2022-11-19T10:22:24.569Z,16.17
2022-11-19T10:25:24.063Z,15.40
2022-11-19T10:27:55.108Z,17.65
2022-11-19T10:30:26.054Z,12.48
2022-11-19T10:33:10.069Z,17.20
2022-11-19T10:35:45.506Z,15.40
2022-11-19T10:38:27.869Z,16.65
2022-11-19T10:41:01.942Z,16.33
2022-11-19T10:43:35.522Z,17.38
2022-11-19T10:46:06.155Z,16.88
2022-11-19T10:48:44.016Z,16.95
2022-11-19T10:51:33.868Z,15.50
2022-11-19T10:54:05.412Z,17.63
2022-11-19T10:56:42.231Z,15.93
2022-11-19T10:59:19.555Z,16.85
2022-11-19T11:01:50.661Z,14.98
2022-11-19T11:04:17.811Z,16.60
2022-11-19T11:07:01.756Z,17.27
2022-11-19T11:09:31.863Z,18.13
2022-11-19T11:12:27.471Z,17.77
2022-11-19T11:15:07.780Z,17.10
2022-11-19T11:17:36.655Z,17.88
2022-11-19T11:20:07.687Z,19.00
2022-11-19T11:22:36.353Z,17.05
2022-11-19T11:25:07.325Z,17.92
2022-11-19T11:27:35.804Z,17.42
2022-11-19T11:30:12.121Z,17.52
2022-11-19T11:32:40.864Z,18.00
2022-11-19T11:35:36.180Z,18.90
2022-11-19T11:38:05.333Z,19.60
2022-11-19T11:40:32.592Z,18.00
2022-11-19T11:43:00.286Z,19.13
2022-11-19T11:45:33.634Z,18.40
2022-11-19T11:48:08.647Z,17.98
2022-11-19T11:50:38.032Z,17.48
2022-11-19T11:53:09.623Z,18.27
2022-11-19T11:55:38.724Z,17.48
2022-11-19T11:58:25.032Z,19.23
2022-11-19T12:01:15.487Z,17.92
2022-11-19T12:03:55.563Z,15.57
2022-11-19T12:06:32.320Z,20.33
2022-11-19T12:09:16.644Z,19.20
2022-11-19T12:11:56.490Z,18.90
2022-11-19T12:14:31.980Z,18.58
2022-11-19T12:17:08.352Z,19.27
2022-11-19T12:20:03.884Z,17.90
2022-11-19T12:23:24.306Z,19.58
2022-11-19T12:26:22.434Z,20.35
2022-11-19T12:29:15.469Z,20.55
2022-11-19T12:32:24.324Z,20.08
2022-11-19T12:35:00.560Z,21.30
2022-11-19T12:37:37.156Z,22.67
2022-11-19T12:40:14.913Z,21.05
2022-11-19T12:43:23.482Z,22.70
2022-11-19T12:46:19.840Z,24.60
2022-11-19T12:49:06.217Z,23.10
2022-11-19T12:51:47.138Z,24.77
2022-11-19T12:54:48.648Z,24.73
2022-11-19T12:57:18.719Z,22.70
2022-11-19T13:00:19.290Z,23.33
2022-11-19T13:03:14.935Z,24.83
2022-11-19T13:06:00.499Z,23.38
2022-11-19T13:08:33.720Z,21.38
2022-11-19T13:11:22.393Z,23.63
2022-11-19T13:13:58.774Z,21.88
2022-11-19T13:16:29.353Z,20.95
2022-11-19T13:19:14.945Z,22.35
2022-11-19T13:21:55.098Z,20.10
2022-11-19T13:24:41.086Z,20.05
2022-11-19T13:27:20.231Z,21.80
2022-11-19T13:30:03.955Z,17.92
2022-11-19T13:32:40.625Z,22.02
2022-11-19T13:35:07.699Z,19.67
2022-11-19T13:37:58.024Z,20.65
2022-11-19T13:40:35.987Z,21.95
2022-11-19T13:43:32.056Z,22.42
2022-11-19T13:46:30.702Z,18.58
2022-11-19T13:49:15.845Z,20.23
2022-11-19T13:51:47.690Z,20.73
2022-11-19T13:54:27.491Z,22.50
2022-11-19T13:56:58.312Z,20.50
2022-11-19T13:59:34.420Z,22.10
2022-11-19T14:02:10.500Z,22.90
2022-11-19T14:04:48.355Z,23.35
2022-11-19T14:07:21.865Z,24.55
2022-11-19T14:10:11.556Z,23.42
2022-11-19T14:12:57.374Z,21.27
2022-11-19T14:16:05.106Z,21.77
2022-11-19T14:18:59.127Z,22.20
2022-11-19T14:21:44.963Z,22.65
2022-11-19T14:24:46.159Z,22.77
2022-11-19T14:27:23.090Z,23.33
2022-11-19T14:29:50.301Z,23.75
2022-11-19T14:32:19.059Z,25.88
2022-11-19T14:35:08.965Z,28.20
2022-11-19T14:37:58.367Z,27.45
2022-11-19T14:40:31.870Z,27.17
2022-11-19T14:43:20.890Z,28.00
2022-11-19T14:46:03.389Z,27.35
2022-11-19T14:48:30.802Z,25.38
2022-11-19T14:51:07.626Z,27.30
2022-11-19T14:53:38.895Z,24.45
2022-11-19T14:56:13.821Z,27.35
2022-11-19T14:58:55.764Z,28.45
2022-11-19T15:01:24.477Z,26.70
2022-11-19T15:03:59.693Z,28.23
2022-11-19T15:06:28.496Z,27.42
2022-11-19T15:08:59.181Z,29.20
2022-11-19T15:12:00.366Z,30.27
2022-11-19T15:14:39.799Z,30.07
2022-11-19T15:17:10.253Z,33.42
2022-11-19T15:20:28.723Z,29.42
2022-11-19T15:23:13.820Z,30.92
2022-11-19T15:25:53.050Z,30.80
2022-11-19T15:28:38.323Z,31.77
2022-11-19T15:31:13.694Z,28.70
2022-11-19T15:34:01.767Z,28.02
2022-11-19T15:36:39.810Z,28.67
2022-11-19T15:39:18.049Z,30.67
2022-11-19T15:42:03.313Z,29.27
2022-11-19T15:44:30.448Z,25.85
2022-11-19T15:47:01.889Z,25.40
2022-11-19T15:49:31.320Z,28.23
2022-11-19T15:52:04.848Z,27.00
2022-11-19T15:54:34.605Z,24.63
2022-11-19T15:57:06.540Z,22.60
2022-11-19T15:59:37.946Z,24.45
2022-11-19T16:02:18.201Z,26.20
2022-11-19T16:04:45.508Z,24.77
2022-11-19T16:07:13.751Z,27.63
2022-11-19T16:09:41.090Z,27.33
2022-11-19T16:12:38.535Z,30.52
2022-11-19T16:15:36.769Z,29.67
2022-11-19T16:18:04.446Z,27.27
2022-11-19T16:20:33.762Z,28.42
2022-11-19T16:23:05.260Z,30.13
2022-11-19T16:25:40.111Z,28.00
2022-11-19T16:28:19.687Z,27.92
2022-11-19T16:30:53.816Z,27.90
2022-11-19T16:33:24.394Z,30.63
2022-11-19T16:35:53.879Z,26.48
2022-11-19T16:38:26.918Z,32.35
2022-11-19T16:41:14.370Z,30.80
2022-11-19T16:43:44.939Z,31.90
2022-11-19T16:46:16.678Z,28.63
2022-11-19T16:51:32.874Z,28.25
2022-11-19T16:54:01.522Z,28.40
2022-11-19T16:56:42.803Z,29.83
2022-11-19T16:59:19.295Z,33.60
2022-11-19T17:01:59.714Z,28.33
2022-11-19T17:04:31.845Z,27.92
2022-11-19T17:06:59.681Z,27.73
2022-11-19T17:09:34.920Z,27.27
2022-11-19T17:12:17.447Z,31.65
2022-11-19T17:15:32.305Z,28.08
2022-11-19T17:18:26.946Z,25.40
2022-11-19T17:20:59.532Z,30.45
2022-11-19T17:23:30.108Z,32.55
2022-11-19T17:26:02.586Z,33.95
2022-11-19T17:28:46.698Z,24.90
2022-11-19T17:31:23.454Z,25.23
2022-11-19T17:33:53.891Z,25.25
2022-11-19T17:36:22.381Z,23.52
2022-11-19T17:38:49.643Z,26.55
2022-11-19T17:41:41.605Z,25.67
2022-11-19T17:44:31.854Z,27.52
2022-11-19T17:46:59.551Z,24.17
2022-11-19T17:49:26.724Z,27.30
2022-11-19T17:51:55.493Z,23.65
2022-11-19T17:54:24.099Z,23.67
2022-11-19T17:56:51.691Z,21.33
2022-11-19T17:59:18.945Z,26.63
2022-11-19T18:01:46.453Z,23.15
2022-11-19T18:04:13.906Z,21.98
2022-11-19T18:06:42.110Z,24.98
2022-11-19T18:09:09.282Z,24.45
2022-11-19T18:11:39.019Z,25.25
2022-11-19T18:14:10.232Z,23.05
2022-11-19T18:16:40.084Z,23.38
2022-11-19T18:19:23.349Z,21.85
2022-11-19T18:21:51.927Z,24.63
2022-11-19T18:24:19.482Z,22.23
2022-11-19T18:26:46.986Z,23.38
2022-11-19T18:29:14.189Z,22.00
2022-11-19T18:31:49.585Z,22.73
2022-11-19T18:34:19.509Z,20.67
2022-11-19T18:36:47.006Z,19.75
2022-11-19T18:39:14.582Z,19.15
2022-11-19T18:41:42.568Z,18.00
2022-11-19T18:44:33.042Z,21.33
2022-11-19T18:47:06.596Z,16.77
2022-11-19T18:49:35.212Z,17.27
2022-11-19T18:52:07.933Z,18.05
2022-11-19T18:54:35.202Z,21.45
2022-11-19T18:57:02.728Z,17.95
2022-11-19T18:59:32.623Z,16.92
2022-11-19T19:02:00.188Z,20.08
2022-11-19T19:04:27.548Z,21.20
2022-11-19T19:06:55.106Z,22.08
2022-11-19T19:09:22.787Z,16.55
2022-11-19T19:12:13.600Z,17.48
2022-11-19T19:14:42.630Z,19.45
2022-11-19T19:17:11.443Z,19.88
2022-11-19T19:19:39.613Z,19.58
2022-11-19T19:22:07.968Z,19.48
2022-11-19T19:24:35.143Z,23.42
2022-11-19T19:27:03.015Z,24.88
2022-11-19T19:29:30.220Z,19.50
2022-11-19T19:31:58.426Z,21.65
2022-11-19T19:34:25.657Z,19.00
2022-11-19T19:36:53.725Z,18.65
2022-11-19T19:39:21.505Z,20.13
2022-11-19T19:41:49.514Z,16.23
2022-11-19T19:44:17.299Z,15.35
2022-11-19T19:46:48.011Z,16.35
2022-11-19T19:49:15.304Z,19.58
2022-11-19T19:51:42.841Z,16.23
2022-11-19T19:54:10.046Z,15.88
2022-11-19T19:56:37.645Z,15.15
2022-11-19T19:59:05.047Z,16.17
2022-11-19T20:01:35.542Z,15.98
2022-11-19T20:04:11.171Z,15.35
2022-11-19T20:06:44.422Z,16.65
2022-11-19T20:09:11.793Z,15.52
2022-11-19T20:11:39.278Z,18.58
2022-11-19T20:14:06.524Z,17.85
2022-11-19T20:16:35.242Z,15.95
2022-11-19T20:19:02.659Z,18.13
2022-11-19T20:21:34.146Z,16.67
2022-11-19T20:24:04.864Z,18.35
2022-11-19T20:26:34.856Z,17.63
2022-11-19T20:29:04.145Z,20.05
2022-11-19T20:31:33.078Z,16.45
2022-11-19T20:34:02.169Z,19.05
2022-11-19T20:36:31.942Z,18.38
2022-11-19T20:38:59.569Z,17.98
2022-11-19T20:41:47.246Z,16.25
2022-11-19T20:44:22.598Z,17.67
2022-11-19T20:46:59.621Z,18.17
2022-11-19T20:49:28.984Z,18.80
2022-11-19T20:51:57.354Z,18.15
2022-11-19T20:54:26.146Z,17.83
2022-11-19T20:56:55.197Z,18.85
2022-11-19T20:59:23.646Z,20.15
2022-11-19T21:01:52.348Z,19.00
2022-11-19T21:04:21.013Z,17.10
2022-11-19T21:06:50.059Z,22.25
2022-11-19T21:09:19.813Z,20.20
2022-11-19T21:11:48.080Z,21.08
2022-11-19T21:14:15.644Z,20.90
2022-11-19T21:16:43.092Z,23.38
2022-11-19T21:19:10.912Z,19.90
2022-11-19T21:21:38.858Z,23.65
2022-11-19T21:24:06.585Z,24.15
2022-11-19T21:26:34.427Z,22.75
2022-11-19T21:29:01.707Z,22.88
2022-11-19T21:31:45.468Z,22.63
2022-11-19T21:34:14.694Z,23.92
2022-11-19T21:36:43.598Z,23.27
2022-11-19T21:39:11.960Z,24.50
2022-11-19T21:41:39.577Z,24.38
2022-11-19T21:44:07.196Z,24.35
2022-11-19T21:46:35.399Z,23.92
2022-11-19T21:49:03.142Z,24.63
2022-11-19T21:51:30.706Z,25.85
2022-11-19T21:53:59.044Z,24.40
2022-11-19T21:56:27.504Z,24.17
2022-11-19T21:58:54.723Z,29.17
2022-11-19T22:01:22.443Z,26.63
2022-11-19T22:03:49.780Z,26.05
2022-11-19T22:06:17.280Z,27.77
2022-11-19T22:08:44.463Z,27.67
2022-11-19T22:11:31.551Z,26.73
2022-11-19T22:14:04.794Z,30.17
2022-11-19T22:16:35.298Z,29.05
2022-11-19T22:19:02.733Z,27.92
2022-11-19T22:21:30.317Z,26.98
2022-11-19T22:23:57.927Z,32.33
2022-11-19T22:26:25.896Z,29.55
2022-11-19T22:28:53.216Z,29.13
2022-11-19T22:31:20.739Z,29.00
2022-11-19T22:33:49.794Z,27.63
2022-11-19T22:36:18.539Z,27.08
2022-11-19T22:38:45.701Z,27.30
2022-11-19T22:41:15.581Z,25.95
2022-11-19T22:43:43.397Z,30.45
2022-11-19T22:46:13.095Z,27.58
2022-11-19T22:48:40.559Z,24.77
2022-11-19T22:51:11.824Z,27.60
2022-11-19T22:53:39.298Z,25.48
2022-11-19T22:56:09.911Z,28.27
2022-11-19T22:58:38.302Z,25.08
2022-11-19T23:01:06.991Z,25.45
2022-11-19T23:03:34.238Z,24.70
2022-11-19T23:06:01.701Z,25.35
2022-11-19T23:08:28.903Z,23.90
2022-11-19T23:11:01.223Z,25.20
2022-11-19T23:13:33.320Z,26.13
2022-11-19T23:16:00.725Z,24.13
2022-11-19T23:18:29.347Z,28.55
2022-11-19T23:21:03.082Z,27.20
2022-11-19T23:23:30.391Z,26.95
2022-11-19T23:25:59.561Z,25.38
2022-11-19T23:28:28.803Z,27.85
2022-11-19T23:30:56.452Z,30.40
2022-11-19T23:33:24.011Z,26.73
2022-11-19T23:35:51.473Z,29.17
2022-11-19T23:38:18.646Z,28.85
2022-11-19T23:40:46.154Z,29.70
2022-11-19T23:43:13.353Z,30.75
2022-11-19T23:45:40.900Z,27.20
2022-11-19T23:48:08.738Z,29.98
2022-11-19T23:50:36.190Z,28.60
2022-11-19T23:53:03.332Z,32.25
2022-11-19T23:55:30.837Z,28.75
2022-11-19T23:57:58.289Z,26.02
